Terminal Aerodrome Forecast
Issued by NWS

Home | Current Version | Previous Version | Text Only | Print | Product List | Glossary Off
Versions: 1 2 3 4 5 6 7 8 9 10 11 12 13 14 15 16 17 18 19 20 21

000
FTUS42 KMHX 141700
TAFISO
TAF
KISO 141732Z 1418/1518 19014G23KT P6SM SCT035 BKN200
     FM150000 17012KT P6SM VCSH BKN015
     FM150600 18008KT P6SM VCSH OVC007
     FM151300 19012G18KT P6SM VCSH BKN025
     FM151700 19013G22KT P6SM -RA VCTS BKN025CB
      AMD LTD TO CLD VIS AND WIND=

USA.gov is the U.S. government's official web portal to all federal, state and local government web resources and services.